createdAt,value
2023-01-15T00:00:13.461Z,8.44
2023-01-15T00:02:41.837Z,8.39
2023-01-15T00:05:10.275Z,8.59
2023-01-15T00:07:38.481Z,8.38
2023-01-15T00:10:10.125Z,8.50
2023-01-15T00:12:38.312Z,8.51
2023-01-15T00:15:08.023Z,8.48
2023-01-15T00:17:36.218Z,8.53
2023-01-15T00:20:05.152Z,8.46
2023-01-15T00:22:33.369Z,8.45
2023-01-15T00:25:18.969Z,8.56
2023-01-15T00:27:48.660Z,8.59
2023-01-15T00:30:19.001Z,7.70
2023-01-15T00:32:47.329Z,8.72
2023-01-15T00:35:18.704Z,8.62
2023-01-15T00:37:47.279Z,8.67
2023-01-15T00:40:18.113Z,8.71
2023-01-15T00:42:54.177Z,8.74
2023-01-15T00:45:24.468Z,8.66
2023-01-15T00:47:52.965Z,8.82
2023-01-15T00:50:22.677Z,8.80
2023-01-15T00:52:50.844Z,8.74
2023-01-15T00:55:19.122Z,8.70
2023-01-15T00:57:47.398Z,8.77
2023-01-15T01:00:16.664Z,8.69
2023-01-15T01:02:46.305Z,8.67
2023-01-15T01:05:16.940Z,8.69
2023-01-15T01:07:45.145Z,8.70
2023-01-15T01:10:13.526Z,8.70
2023-01-15T01:12:41.735Z,8.59
2023-01-15T01:15:11.410Z,8.71
2023-01-15T01:17:40.274Z,8.57
2023-01-15T01:20:14.929Z,8.54
2023-01-15T01:22:43.154Z,8.50
2023-01-15T01:25:11.978Z,8.61
2023-01-15T01:27:40.212Z,8.39
2023-01-15T01:30:10.541Z,8.43
2023-01-15T01:32:38.794Z,8.31
2023-01-15T01:35:07.886Z,8.25
2023-01-15T01:37:38.063Z,7.89
2023-01-15T01:40:07.652Z,8.23
2023-01-15T01:42:35.839Z,8.16
2023-01-15T01:45:13.153Z,8.06
2023-01-15T01:47:42.273Z,8.12
2023-01-15T01:50:14.119Z,8.15
2023-01-15T01:52:51.402Z,8.02
2023-01-15T01:55:23.556Z,8.15
2023-01-15T01:57:55.892Z,7.99
2023-01-15T02:00:31.161Z,8.01
2023-01-15T02:02:59.574Z,8.14
2023-01-15T02:05:33.496Z,8.08
2023-01-15T02:08:03.271Z,8.08
2023-01-15T02:10:31.836Z,8.18
2023-01-15T02:13:07.780Z,7.85
2023-01-15T02:15:42.018Z,8.01
2023-01-15T02:18:17.593Z,8.12
2023-01-15T02:20:52.389Z,8.13
2023-01-15T02:24:03.447Z,8.17
2023-01-15T02:27:11.314Z,8.17
2023-01-15T02:29:49.846Z,8.19
2023-01-15T02:32:30.954Z,8.17
2023-01-15T02:35:06.084Z,8.20
2023-01-15T02:37:39.258Z,8.12
2023-01-15T02:40:11.857Z,8.15
2023-01-15T02:42:43.831Z,8.18
2023-01-15T02:45:13.756Z,8.39
2023-01-15T02:47:45.628Z,8.27
2023-01-15T02:50:19.150Z,8.33
2023-01-15T02:52:53.479Z,8.43
2023-01-15T02:55:31.163Z,8.41
2023-01-15T02:58:06.166Z,8.48
2023-01-15T03:00:43.447Z,8.22
2023-01-15T03:03:19.270Z,8.67
2023-01-15T03:05:57.225Z,8.80
2023-01-15T03:08:26.137Z,8.71
2023-01-15T03:11:21.200Z,8.77
2023-01-15T03:14:04.383Z,8.77
2023-01-15T03:16:39.120Z,8.93
2023-01-15T03:19:20.955Z,9.06
2023-01-15T03:21:56.989Z,9.06
2023-01-15T03:24:33.666Z,9.16
2023-01-15T03:27:02.986Z,9.16
2023-01-15T03:29:37.751Z,9.14
2023-01-15T03:32:08.266Z,9.22
2023-01-15T03:34:45.503Z,9.32
2023-01-15T03:37:19.389Z,9.29
2023-01-15T03:39:48.174Z,9.16
2023-01-15T03:42:46.955Z,9.05
2023-01-15T03:45:24.742Z,9.20
2023-01-15T03:48:03.158Z,9.11
2023-01-15T03:50:39.770Z,9.31
2023-01-15T03:53:17.258Z,9.28
2023-01-15T03:55:57.757Z,8.60
2023-01-15T03:58:31.073Z,9.31
2023-01-15T04:01:04.749Z,9.42
2023-01-15T04:03:37.101Z,8.74
2023-01-15T04:06:08.906Z,9.42
2023-01-15T04:08:42.118Z,9.51
2023-01-15T04:11:10.502Z,9.42
2023-01-15T04:13:45.040Z,9.42
2023-01-15T04:16:30.205Z,9.41
2023-01-15T04:18:59.679Z,9.55
2023-01-15T04:21:29.100Z,9.46
2023-01-15T04:23:57.315Z,9.68
2023-01-15T04:26:25.995Z,9.54
2023-01-15T04:28:54.182Z,9.57
2023-01-15T04:31:22.505Z,9.47
2023-01-15T04:33:52.127Z,9.46
2023-01-15T04:36:20.409Z,9.41
2023-01-15T04:38:48.683Z,9.42
2023-01-15T04:41:39.875Z,9.35
2023-01-15T04:44:08.230Z,9.37
2023-01-15T04:46:38.765Z,9.36
2023-01-15T04:49:11.637Z,9.32
2023-01-15T04:51:40.297Z,9.31
2023-01-15T04:54:10.193Z,9.32
2023-01-15T04:56:41.845Z,9.46
2023-01-15T04:59:10.373Z,9.43
2023-01-15T05:01:39.237Z,8.78
2023-01-15T05:04:09.597Z,9.34
2023-01-15T05:06:38.492Z,8.22
2023-01-15T05:09:12.636Z,9.39
2023-01-15T05:11:41.556Z,9.35
2023-01-15T05:14:10.149Z,9.30
2023-01-15T05:16:39.205Z,8.30
2023-01-15T05:19:09.563Z,9.22
2023-01-15T05:21:41.551Z,8.01
2023-01-15T05:24:13.069Z,9.17
2023-01-15T05:26:41.531Z,8.29
2023-01-15T05:29:11.610Z,9.03
2023-01-15T05:31:41.865Z,9.02
2023-01-15T05:34:12.948Z,8.75
2023-01-15T05:36:41.257Z,8.86
2023-01-15T05:39:09.715Z,8.86
2023-01-15T05:41:49.864Z,8.88
2023-01-15T05:44:21.409Z,8.80
2023-01-15T05:46:50.908Z,8.94
2023-01-15T05:49:23.645Z,8.78
2023-01-15T05:51:52.636Z,8.72
2023-01-15T05:54:23.259Z,8.03
2023-01-15T05:56:51.539Z,8.57
2023-01-15T05:59:24.133Z,8.46
2023-01-15T06:01:52.597Z,8.29
2023-01-15T06:04:22.894Z,8.01
2023-01-15T06:06:53.250Z,8.09
2023-01-15T06:09:23.069Z,7.93
2023-01-15T06:11:53.661Z,7.69
2023-01-15T06:14:22.434Z,7.52
2023-01-15T06:16:50.725Z,7.40
2023-01-15T06:19:18.974Z,6.82
2023-01-15T06:21:49.062Z,7.15
2023-01-15T06:24:17.975Z,7.14
2023-01-15T06:26:46.238Z,6.92
2023-01-15T06:29:18.541Z,6.87
2023-01-15T06:31:47.381Z,6.96
2023-01-15T06:34:15.730Z,6.93
2023-01-15T06:36:43.969Z,6.97
2023-01-15T06:39:17.285Z,6.87
2023-01-15T06:42:03.463Z,6.73
2023-01-15T06:44:49.359Z,6.64
2023-01-15T06:47:23.576Z,6.55
2023-01-15T06:49:55.691Z,6.65
2023-01-15T06:52:24.529Z,6.41
2023-01-15T06:54:54.651Z,6.31
2023-01-15T06:57:23.186Z,6.21
2023-01-15T06:59:52.220Z,6.09
2023-01-15T07:02:21.638Z,5.97
2023-01-15T07:04:58.350Z,6.06
2023-01-15T07:07:29.104Z,5.97
2023-01-15T07:10:11.491Z,5.85
2023-01-15T07:12:39.690Z,5.78
2023-01-15T07:15:09.317Z,5.79
2023-01-15T07:17:37.574Z,5.69
2023-01-15T07:20:07.707Z,5.67
2023-01-15T07:22:35.887Z,5.55
2023-01-15T07:25:04.588Z,5.58
2023-01-15T07:27:34.451Z,5.50
2023-01-15T07:30:03.129Z,5.37
2023-01-15T07:32:31.335Z,5.38
2023-01-15T07:34:59.565Z,5.31
2023-01-15T07:37:28.706Z,5.29
2023-01-15T07:39:57.547Z,5.37
2023-01-15T07:42:43.483Z,5.19
2023-01-15T07:45:37.216Z,5.27
2023-01-15T07:48:24.302Z,4.99
2023-01-15T07:50:52.489Z,4.92
2023-01-15T07:53:20.719Z,4.85
2023-01-15T07:55:49.091Z,4.75
2023-01-15T07:58:17.320Z,4.78
2023-01-15T08:00:47.031Z,4.77
2023-01-15T08:03:15.327Z,4.65
2023-01-15T08:05:43.566Z,4.79
2023-01-15T08:08:16.526Z,4.75
2023-01-15T08:11:06.629Z,4.80
2023-01-15T08:13:52.482Z,4.62
2023-01-15T08:16:22.111Z,4.70
2023-01-15T08:18:50.331Z,4.64
2023-01-15T08:21:19.592Z,4.61
2023-01-15T08:23:47.853Z,4.51
2023-01-15T08:26:16.077Z,4.52
2023-01-15T08:28:44.298Z,4.31
2023-01-15T08:31:12.563Z,4.35
2023-01-15T08:33:42.107Z,4.46
2023-01-15T08:36:10.532Z,4.17
2023-01-15T08:38:38.716Z,4.29
2023-01-15T08:41:07.533Z,4.34
2023-01-15T08:43:35.876Z,4.08
2023-01-15T08:46:06.698Z,4.19
2023-01-15T08:48:35.238Z,4.13
2023-01-15T08:51:07.640Z,4.16
2023-01-15T08:53:36.230Z,4.21
2023-01-15T08:56:05.385Z,4.05
2023-01-15T08:58:34.469Z,3.88
2023-01-15T09:01:07.110Z,3.97
2023-01-15T09:04:00.372Z,4.04
2023-01-15T09:06:30.142Z,3.92
2023-01-15T09:09:00.723Z,3.30
2023-01-15T09:11:54.158Z,3.86
2023-01-15T09:14:57.692Z,3.86
2023-01-15T09:17:10.871Z,3.93
2023-01-15T09:19:39.115Z,3.66
2023-01-15T09:22:08.713Z,3.90
2023-01-15T09:24:36.945Z,3.82
2023-01-15T09:27:05.342Z,3.70
2023-01-15T09:29:33.602Z,3.67
2023-01-15T09:32:02.570Z,3.71
2023-01-15T09:34:30.801Z,3.55
2023-01-15T09:36:58.976Z,3.53
2023-01-15T09:39:28.536Z,3.54
2023-01-15T09:42:15.840Z,3.64
2023-01-15T09:45:18.507Z,3.53
2023-01-15T09:48:06.054Z,3.37
2023-01-15T09:50:50.140Z,3.47
2023-01-15T09:53:50.921Z,3.67
2023-01-15T09:56:24.795Z,3.12
2023-01-15T09:58:53.726Z,3.72
2023-01-15T10:01:27.940Z,3.63
2023-01-15T10:04:01.964Z,3.73
2023-01-15T10:06:34.722Z,3.59
2023-01-15T10:09:12.279Z,3.77
2023-01-15T10:12:04.489Z,3.84
2023-01-15T10:14:41.884Z,3.56
2023-01-15T10:17:24.166Z,3.67
2023-01-15T10:19:53.758Z,3.62
2023-01-15T10:22:40.391Z,3.61
2023-01-15T10:25:17.065Z,3.66
2023-01-15T10:27:52.335Z,3.57
2023-01-15T10:30:33.557Z,3.60
2023-01-15T10:33:08.692Z,3.53
2023-01-15T10:35:53.366Z,3.50
2023-01-15T10:38:30.870Z,3.46
2023-01-15T10:41:18.213Z,3.52
2023-01-15T10:43:55.680Z,3.49
2023-01-15T10:46:28.015Z,3.45
2023-01-15T10:49:00.412Z,3.43
2023-01-15T10:51:41.454Z,3.15
2023-01-15T10:54:20.212Z,3.42
2023-01-15T10:56:56.329Z,3.38
2023-01-15T10:59:37.733Z,3.19
2023-01-15T11:02:34.075Z,3.42
2023-01-15T11:05:18.114Z,3.34
2023-01-15T11:08:19.541Z,3.32
2023-01-15T11:10:41.386Z,3.23
2023-01-15T11:13:39.262Z,3.18
2023-01-15T11:16:33.617Z,3.10
2023-01-15T11:19:22.138Z,3.23
2023-01-15T11:21:51.534Z,3.08
2023-01-15T11:24:21.875Z,3.12
2023-01-15T11:26:54.749Z,2.95
2023-01-15T11:29:32.381Z,2.88
2023-01-15T11:32:02.399Z,2.92
2023-01-15T11:34:30.643Z,3.07
2023-01-15T11:37:06.688Z,2.87
2023-01-15T11:39:34.966Z,2.99
2023-01-15T11:42:23.075Z,2.96
2023-01-15T11:45:13.753Z,2.97
2023-01-15T11:48:10.053Z,2.84
2023-01-15T11:50:50.993Z,2.78
2023-01-15T11:53:23.758Z,2.72
2023-01-15T11:56:01.269Z,2.69
2023-01-15T11:58:33.951Z,2.64
2023-01-15T12:01:03.003Z,2.64
2023-01-15T12:03:36.748Z,2.69
2023-01-15T12:06:10.249Z,1.91
2023-01-15T12:08:50.542Z,2.55
2023-01-15T12:11:56.108Z,2.40
2023-01-15T12:14:59.322Z,2.49
2023-01-15T12:17:48.436Z,2.46
2023-01-15T12:20:26.066Z,2.49
2023-01-15T12:23:31.577Z,2.44
2023-01-15T12:26:08.630Z,2.47
2023-01-15T12:28:41.395Z,2.45
2023-01-15T12:31:15.307Z,2.44
2023-01-15T12:33:49.979Z,2.46
2023-01-15T12:36:26.266Z,2.43
2023-01-15T12:39:00.909Z,2.49
2023-01-15T12:41:47.122Z,2.59
2023-01-15T12:44:37.619Z,1.95
2023-01-15T12:47:12.968Z,1.98
2023-01-15T12:49:47.590Z,2.42
2023-01-15T12:52:24.376Z,2.42
2023-01-15T12:55:01.655Z,2.38
2023-01-15T12:57:36.358Z,2.28
2023-01-15T13:00:13.525Z,2.32
2023-01-15T13:02:57.641Z,2.28
2023-01-15T13:05:54.865Z,1.88
2023-01-15T13:08:32.174Z,2.36
2023-01-15T13:11:00.742Z,2.35
2023-01-15T13:13:34.774Z,2.28
2023-01-15T13:16:17.425Z,2.41
2023-01-15T13:18:58.605Z,2.39
2023-01-15T13:21:30.252Z,2.33
2023-01-15T13:24:32.224Z,2.36
2023-01-15T13:27:16.732Z,2.32
2023-01-15T13:29:58.967Z,2.04
2023-01-15T13:32:30.912Z,0.97
2023-01-15T13:35:05.998Z,2.28
2023-01-15T13:37:45.458Z,2.23
2023-01-15T13:40:24.410Z,2.28
2023-01-15T13:42:53.371Z,2.20
2023-01-15T13:45:37.005Z,2.20
2023-01-15T13:48:09.995Z,2.30
2023-01-15T13:50:42.847Z,2.00
2023-01-15T13:53:20.645Z,2.23
2023-01-15T13:55:55.660Z,2.23
2023-01-15T13:58:27.854Z,2.31
2023-01-15T14:01:09.418Z,2.30
2023-01-15T14:03:43.962Z,2.39
2023-01-15T14:06:15.465Z,2.23
2023-01-15T14:08:46.004Z,2.27
2023-01-15T14:11:38.738Z,2.34
2023-01-15T14:15:04.751Z,2.41
2023-01-15T14:18:10.593Z,2.42
2023-01-15T14:20:52.562Z,2.40
2023-01-15T14:23:37.442Z,2.54
2023-01-15T14:26:17.497Z,2.34
2023-01-15T14:29:04.510Z,2.02
2023-01-15T14:31:51.765Z,2.38
2023-01-15T14:34:24.985Z,2.38
2023-01-15T14:37:00.004Z,2.40
2023-01-15T14:39:34.723Z,2.41
2023-01-15T14:42:28.061Z,2.45
2023-01-15T14:45:05.461Z,2.74
2023-01-15T14:47:46.094Z,2.76
2023-01-15T14:50:37.870Z,1.86
2023-01-15T14:53:36.219Z,2.66
2023-01-15T14:56:14.292Z,2.57
2023-01-15T14:58:56.026Z,2.50
2023-01-15T15:01:44.606Z,2.52
2023-01-15T15:04:34.344Z,2.57
2023-01-15T15:07:07.222Z,2.43
2023-01-15T15:09:42.417Z,2.49
2023-01-15T15:12:25.817Z,2.44
2023-01-15T15:15:05.217Z,2.51
2023-01-15T15:17:44.881Z,2.48
2023-01-15T15:20:24.996Z,1.62
2023-01-15T15:22:57.858Z,2.31
2023-01-15T15:25:30.339Z,2.28
2023-01-15T15:28:07.656Z,2.30
2023-01-15T15:30:41.158Z,2.21
2023-01-15T15:33:18.301Z,2.32
2023-01-15T15:35:50.740Z,2.12
2023-01-15T15:38:22.787Z,2.19
2023-01-15T15:40:54.214Z,0.67
2023-01-15T15:43:46.033Z,2.29
2023-01-15T15:46:43.907Z,2.18
2023-01-15T15:49:13.777Z,2.15
2023-01-15T15:51:48.651Z,2.18
2023-01-15T15:54:22.065Z,1.26
2023-01-15T15:56:59.144Z,2.11
2023-01-15T15:59:33.448Z,2.21
2023-01-15T16:02:16.714Z,2.18
2023-01-15T16:04:52.042Z,2.11
2023-01-15T16:07:26.715Z,2.20
2023-01-15T16:09:59.307Z,2.04
2023-01-15T16:12:31.071Z,1.23
2023-01-15T16:15:00.170Z,2.24
2023-01-15T16:17:54.377Z,2.17
2023-01-15T16:20:24.817Z,2.16
2023-01-15T16:22:57.115Z,2.14
2023-01-15T16:25:30.628Z,1.30
2023-01-15T16:27:59.071Z,2.16
2023-01-15T16:30:27.546Z,2.11
2023-01-15T16:33:01.020Z,2.18
2023-01-15T16:35:31.907Z,2.14
2023-01-15T16:38:02.832Z,2.18
2023-01-15T16:40:34.469Z,2.15
2023-01-15T16:43:09.048Z,2.16
2023-01-15T16:45:40.109Z,2.21
2023-01-15T16:48:27.410Z,2.02
2023-01-15T16:50:58.252Z,2.02
2023-01-15T16:53:41.853Z,2.02
2023-01-15T16:56:29.454Z,1.99
2023-01-15T16:58:57.627Z,2.06
2023-01-15T17:01:34.553Z,1.96
2023-01-15T17:04:17.505Z,2.08
2023-01-15T17:06:58.962Z,2.05
2023-01-15T17:09:31.753Z,1.98
2023-01-15T17:12:03.652Z,2.12
2023-01-15T17:14:31.890Z,1.92
2023-01-15T17:17:27.026Z,2.08
2023-01-15T17:19:57.457Z,2.00
2023-01-15T17:22:30.323Z,1.93
2023-01-15T17:25:01.350Z,2.11
2023-01-15T17:27:32.017Z,1.96
2023-01-15T17:30:00.579Z,1.94
2023-01-15T17:32:33.376Z,1.99
2023-01-15T17:35:01.613Z,1.86
2023-01-15T17:37:31.191Z,1.98
2023-01-15T17:39:59.416Z,1.91
2023-01-15T17:42:27.623Z,1.95
2023-01-15T17:44:55.802Z,1.88
2023-01-15T17:47:23.931Z,1.92
2023-01-15T17:49:52.079Z,1.90
2023-01-15T17:52:21.615Z,1.60
2023-01-15T17:55:08.979Z,1.89
2023-01-15T17:57:54.550Z,1.87
2023-01-15T18:00:41.968Z,1.72
2023-01-15T18:03:35.026Z,1.86
2023-01-15T18:06:03.760Z,1.75
2023-01-15T18:08:33.850Z,1.67
2023-01-15T18:11:03.555Z,1.59
2023-01-15T18:13:31.761Z,1.74
2023-01-15T18:16:00.006Z,1.72
2023-01-15T18:18:28.307Z,1.75
2023-01-15T18:20:56.529Z,1.57
2023-01-15T18:23:26.095Z,1.72
2023-01-15T18:25:54.357Z,1.66
2023-01-15T18:28:23.906Z,1.64
2023-01-15T18:30:52.185Z,1.62
2023-01-15T18:33:20.427Z,1.58
2023-01-15T18:35:48.644Z,1.63
2023-01-15T18:38:16.839Z,1.56
2023-01-15T18:40:45.051Z,1.62
2023-01-15T18:43:30.083Z,1.54
2023-01-15T18:46:28.856Z,1.51
2023-01-15T18:48:58.549Z,1.57
2023-01-15T18:51:26.743Z,1.59
2023-01-15T18:53:55.371Z,1.58
2023-01-15T18:56:37.491Z,1.54
2023-01-15T18:59:08.102Z,1.44
2023-01-15T19:01:39.434Z,1.63
2023-01-15T19:04:10.930Z,1.42
2023-01-15T19:06:44.530Z,1.47
2023-01-15T19:09:16.834Z,1.37
2023-01-15T19:12:11.192Z,1.50
2023-01-15T19:14:57.036Z,1.34
2023-01-15T19:17:44.802Z,1.34
2023-01-15T19:20:18.941Z,1.46
2023-01-15T19:23:06.094Z,1.42
2023-01-15T19:25:39.725Z,1.41
2023-01-15T19:28:10.556Z,1.60
2023-01-15T19:30:39.946Z,1.63
2023-01-15T19:33:10.825Z,1.24
2023-01-15T19:35:40.620Z,1.42
2023-01-15T19:38:10.590Z,1.44
2023-01-15T19:40:42.007Z,1.44
2023-01-15T19:43:29.193Z,1.57
2023-01-15T19:46:15.615Z,1.47
2023-01-15T19:49:02.816Z,1.37
2023-01-15T19:52:00.472Z,1.38
2023-01-15T19:54:42.622Z,1.27
2023-01-15T19:57:10.838Z,1.37
2023-01-15T19:59:39.270Z,1.28
2023-01-15T20:02:07.540Z,1.40
2023-01-15T20:04:37.107Z,1.36
2023-01-15T20:07:05.368Z,1.20
2023-01-15T20:09:33.584Z,1.19
2023-01-15T20:12:19.115Z,1.24
2023-01-15T20:14:47.491Z,1.22
2023-01-15T20:17:15.714Z,1.28
2023-01-15T20:19:45.525Z,1.26
2023-01-15T20:22:13.794Z,1.17
2023-01-15T20:24:44.052Z,1.15
2023-01-15T20:27:13.635Z,1.12
2023-01-15T20:29:42.041Z,0.99
2023-01-15T20:32:10.407Z,1.12
2023-01-15T20:34:39.759Z,1.15
2023-01-15T20:37:10.221Z,1.18
2023-01-15T20:39:38.459Z,1.06
2023-01-15T20:42:24.737Z,0.36
2023-01-15T20:44:55.725Z,1.21
2023-01-15T20:47:42.879Z,1.12
2023-01-15T20:50:15.733Z,1.27
2023-01-15T20:52:50.022Z,1.15
2023-01-15T20:55:20.531Z,1.28
2023-01-15T20:57:48.885Z,1.12
2023-01-15T21:00:20.319Z,0.61
2023-01-15T21:02:49.295Z,1.15
2023-01-15T21:05:20.322Z,1.27
2023-01-15T21:07:50.908Z,1.16
2023-01-15T21:10:25.990Z,1.06
2023-01-15T21:12:54.499Z,1.17
2023-01-15T21:15:22.759Z,1.09
2023-01-15T21:17:51.007Z,1.15
2023-01-15T21:20:19.348Z,1.16
2023-01-15T21:22:47.909Z,1.17
2023-01-15T21:25:17.664Z,1.20
2023-01-15T21:27:45.909Z,1.20
2023-01-15T21:30:14.963Z,1.29
2023-01-15T21:32:46.302Z,1.15
2023-01-15T21:35:14.622Z,1.24
2023-01-15T21:37:42.834Z,1.22
2023-01-15T21:40:12.842Z,1.18
2023-01-15T21:42:59.840Z,1.20
2023-01-15T21:45:28.164Z,1.18
2023-01-15T21:47:56.867Z,1.12
2023-01-15T21:50:25.083Z,1.01
2023-01-15T21:52:53.441Z,0.97
2023-01-15T21:55:21.686Z,1.01
2023-01-15T21:57:51.443Z,1.15
2023-01-15T22:00:20.750Z,1.00
2023-01-15T22:02:49.677Z,0.99
2023-01-15T22:05:18.175Z,0.93
2023-01-15T22:07:46.424Z,0.92
2023-01-15T22:10:14.674Z,0.91
2023-01-15T22:12:43.244Z,0.98
2023-01-15T22:15:15.711Z,0.91
2023-01-15T22:17:43.869Z,0.99
2023-01-15T22:20:12.627Z,1.55
2023-01-15T22:22:40.798Z,1.01
2023-01-15T22:25:13.309Z,1.09
2023-01-15T22:27:42.454Z,1.01
2023-01-15T22:30:15.533Z,0.99
2023-01-15T22:32:43.889Z,1.04
2023-01-15T22:35:12.255Z,1.01
2023-01-15T22:37:40.866Z,0.92
2023-01-15T22:40:10.921Z,0.97
2023-01-15T22:42:39.408Z,1.01
2023-01-15T22:45:08.360Z,0.88
2023-01-15T22:47:37.921Z,0.92
2023-01-15T22:50:06.983Z,0.80
2023-01-15T22:52:35.519Z,0.77
2023-01-15T22:55:03.709Z,0.63
2023-01-15T22:57:32.159Z,0.63
2023-01-15T23:00:00.520Z,0.18
2023-01-15T23:02:46.565Z,0.62
2023-01-15T23:05:18.855Z,0.62
2023-01-15T23:07:47.125Z,0.59
2023-01-15T23:10:16.186Z,-0.03
2023-01-15T23:12:44.758Z,0.64
2023-01-15T23:15:16.155Z,0.64
2023-01-15T23:17:44.955Z,0.75
2023-01-15T23:20:14.168Z,0.53
2023-01-15T23:22:43.873Z,0.67
2023-01-15T23:25:12.224Z,0.62
2023-01-15T23:27:40.410Z,0.60
2023-01-15T23:30:11.019Z,0.71
2023-01-15T23:32:40.503Z,0.62
2023-01-15T23:35:10.181Z,0.67
2023-01-15T23:37:38.349Z,0.66
2023-01-15T23:40:10.576Z,0.70
2023-01-15T23:42:56.161Z,0.61
2023-01-15T23:45:41.964Z,0.77
2023-01-15T23:48:10.481Z,0.71
2023-01-15T23:50:38.740Z,0.72
2023-01-15T23:53:06.890Z,0.76
2023-01-15T23:55:36.472Z,0.78
2023-01-15T23:58:04.889Z,0.79
